Time;durP1;ratioP1;P1;durP2;ratioP2;P2;SDS_P1;SDS_P2;PMS_P1;PMS_P2;Temp;Humidity;BMP_temperature;BMP_pressure;BME280_temperature;BME280_humidity;BME280_pressure;Samples;Min_cycle;Max_cycle;Signal;HPM_P1;HPM_P2
2023/10/07 00:02:59;;;;;;;8.45;3.45;;;23.40;59.80;;;;;;4968885;28;86543;-82
2023/10/07 00:08:16;;;;;;;6.43;3.35;;;23.30;59.80;;;;;;4992427;28;85874;-83
2023/10/07 00:10:46;;;;;;;7.43;3.60;;;23.30;60.60;;;;;;4973683;28;86366;-82
2023/10/07 00:13:13;;;;;;;6.97;3.50;;;23.30;59.90;;;;;;5004415;28;86421;-82
2023/10/07 00:15:43;;;;;;;7.90;3.70;;;23.30;59.90;;;;;;5006601;28;86604;-82
2023/10/07 00:18:12;;;;;;;5.72;3.47;;;23.20;59.70;;;;;;4988230;28;85693;-82
2023/10/07 00:20:48;;;;;;;8.98;4.07;;;23.30;59.60;;;;;;5017018;28;85997;-82
2023/10/07 00:23:19;;;;;;;6.75;3.30;;;23.20;59.70;;;;;;5007159;28;87584;-83
2023/10/07 00:25:50;;;;;;;6.53;3.20;;;23.20;59.80;;;;;;5019688;28;88527;-83
2023/10/07 00:28:35;;;;;;;6.03;2.92;;;23.20;59.90;;;;;;5008147;28;85997;-84
2023/10/07 00:31:22;;;;;;;8.85;3.40;;;23.20;59.80;;;;;;5007927;28;88743;-82
2023/10/07 00:33:50;;;;;;;6.38;3.45;;;23.20;59.90;;;;;;5008475;28;87663;-82
2023/10/07 00:39:08;;;;;;;6.82;3.28;;;23.20;60.00;;;;;;5025418;28;85840;-82
2023/10/07 00:41:46;;;;;;;6.18;3.63;;;23.20;60.00;;;;;;5006928;28;85873;-81
2023/10/07 00:44:31;;;;;;;6.65;3.42;;;23.20;59.90;;;;;;5007046;28;88525;-82
2023/10/07 00:49:43;;;;;;;6.35;2.92;;;23.10;59.90;;;;;;5026176;28;85945;-82
2023/10/07 00:52:14;;;;;;;7.15;3.35;;;23.10;60.10;;;;;;5017083;28;86111;-82
2023/10/07 00:54:50;;;;;;;6.60;3.58;;;23.10;60.00;;;;;;5005673;28;95806;-86
2023/10/07 01:02:51;;;;;;;5.95;3.63;;;23.10;60.00;;;;;;4962407;28;85852;-83
2023/10/07 01:05:26;;;;;;;6.97;3.40;;;23.10;60.10;;;;;;4992264;28;88248;-83
2023/10/07 01:07:53;;;;;;;6.25;3.47;;;23.00;60.10;;;;;;4984972;28;94208;-84
2023/10/07 01:10:25;;;;;;;5.88;3.17;;;23.10;60.00;;;;;;4987352;28;85857;-82
2023/10/07 01:12:51;;;;;;;5.60;3.03;;;23.00;60.00;;;;;;4985726;28;85987;-84
2023/10/07 01:15:26;;;;;;;6.22;3.58;;;23.00;60.00;;;;;;5021085;28;87111;-83
2023/10/07 01:18:06;;;;;;;4.55;2.92;;;23.00;59.90;;;;;;5005233;28;87107;-82
2023/10/07 01:23:23;;;;;;;5.15;2.50;;;23.00;60.10;;;;;;5012494;28;85704;-82
2023/10/07 01:25:51;;;;;;;6.63;3.55;;;23.00;59.90;;;;;;5023862;28;86945;-82
2023/10/07 01:28:17;;;;;;;5.35;3.08;;;23.00;59.90;;;;;;5019719;28;87447;-83
2023/10/07 01:31:07;;;;;;;5.43;3.22;;;23.00;59.90;;;;;;5006365;28;85924;-81
2023/10/07 01:33:46;;;;;;;5.65;3.03;;;23.00;60.10;;;;;;5010167;28;85913;-82
2023/10/07 01:36:25;;;;;;;6.95;3.65;;;23.00;60.10;;;;;;5008505;28;86817;-83
2023/10/07 01:38:52;;;;;;;5.30;2.97;;;23.00;60.00;;;;;;5008708;27;90550;-85
2023/10/07 01:41:30;;;;;;;5.82;3.28;;;22.90;59.90;;;;;;4985446;28;86089;-82
2023/10/07 01:43:59;;;;;;;5.82;2.90;;;22.90;59.90;;;;;;4986189;28;86422;-82
2023/10/07 01:46:34;;;;;;;6.60;3.15;;;22.90;59.90;;;;;;5005978;28;87282;-82
2023/10/07 01:49:06;;;;;;;7.03;3.60;;;22.90;59.90;;;;;;4987715;28;88383;-81
2023/10/07 01:51:32;;;;;;;5.05;3.00;;;22.90;59.90;;;;;;5038555;27;86423;-82
2023/10/07 01:54:08;;;;;;;5.90;3.53;;;22.90;60.00;;;;;;5004652;28;85981;-82
2023/10/07 01:56:34;;;;;;;4.97;2.97;;;22.90;60.00;;;;;;5021855;28;86451;-82
2023/10/07 02:01:49;;;;;;;5.32;2.70;;;22.90;59.70;;;;;;5022997;28;86135;-82
2023/10/07 02:04:20;;;;;;;7.07;3.42;;;22.90;59.90;;;;;;5024407;28;86069;-82
2023/10/07 02:06:51;;;;;;;6.00;3.38;;;22.90;59.80;;;;;;5004951;28;93905;-82
2023/10/07 02:12:18;;;;;;;6.70;3.47;;;22.90;59.80;;;;;;5021746;28;86292;-82
2023/10/07 02:14:44;;;;;;;6.32;3.20;;;22.80;59.60;;;;;;5024043;28;86232;-83
2023/10/07 02:17:14;;;;;;;5.22;3.05;;;22.80;59.60;;;;;;5006079;28;87717;-81
2023/10/07 02:19:41;;;;;;;5.45;3.15;;;22.80;59.70;;;;;;5016280;28;87423;-82
2023/10/07 02:22:07;;;;;;;5.88;3.63;;;22.80;59.70;;;;;;5006022;28;85982;-84
2023/10/07 02:24:41;;;;;;;4.55;2.90;;;22.80;59.90;;;;;;5005144;28;85791;-82
2023/10/07 02:27:19;;;;;;;3.67;2.67;;;22.80;59.90;;;;;;5004771;28;90327;-82
2023/10/07 02:29:50;;;;;;;5.13;3.05;;;22.80;59.80;;;;;;5023665;28;86508;-82
2023/10/07 02:32:17;;;;;;;5.32;2.70;;;22.80;59.90;;;;;;5004895;28;86919;-81
2023/10/07 02:34:59;;;;;;;7.13;3.10;;;22.80;60.10;;;;;;5037960;27;85491;-82
2023/10/07 02:37:29;;;;;;;4.70;2.60;;;22.80;60.00;;;;;;5017884;28;88315;-83
2023/10/07 02:39:56;;;;;;;4.75;2.90;;;22.80;60.00;;;;;;5004943;28;88793;-84
2023/10/07 02:42:28;;;;;;;6.07;3.10;;;22.80;60.00;;;;;;5023071;28;86144;-84
2023/10/07 02:45:00;;;;;;;5.70;2.83;;;22.80;59.90;;;;;;5008151;28;85814;-83
2023/10/07 02:47:31;;;;;;;5.88;3.45;;;22.80;60.00;;;;;;5007830;28;88793;-81
2023/10/07 02:50:00;;;;;;;4.50;2.58;;;22.80;59.80;;;;;;5008799;28;87839;-83
2023/10/07 02:52:34;;;;;;;6.75;3.05;;;22.80;60.10;;;;;;5040711;28;87021;-82
2023/10/07 02:57:56;;;;;;;3.20;2.15;;;22.70;59.80;;;;;;4978195;28;90881;-82
2023/10/07 03:00:38;;;;;;;5.55;2.78;;;22.80;59.90;;;;;;5025100;28;85984;-88
2023/10/07 03:05:46;;;;;;;5.15;2.83;;;22.70;60.10;;;;;;5014741;28;86136;-82
2023/10/07 03:08:19;;;;;;;5.78;2.83;;;22.70;59.80;;;;;;5026357;28;87310;-81
2023/10/07 03:10:54;;;;;;;4.43;2.63;;;22.70;59.90;;;;;;5007950;28;88648;-82
2023/10/07 03:13:22;;;;;;;5.30;2.80;;;22.70;59.90;;;;;;5008114;28;86204;-82
2023/10/07 03:18:38;;;;;;;5.55;3.33;;;22.70;60.00;;;;;;5023110;28;86086;-88
2023/10/07 03:21:10;;;;;;;4.18;2.55;;;22.70;59.90;;;;;;5003354;28;88459;-83
2023/10/07 03:23:45;;;;;;;5.10;3.13;;;22.70;59.60;;;;;;5022006;28;85800;-82
2023/10/07 03:26:12;;;;;;;4.47;2.55;;;22.70;60.00;;;;;;5019631;28;85906;-82
2023/10/07 03:28:47;;;;;;;6.72;3.33;;;22.70;60.00;;;;;;5018147;28;87747;-82
2023/10/07 03:31:13;;;;;;;5.47;3.03;;;22.70;60.00;;;;;;5026437;28;86858;-82
2023/10/07 03:33:44;;;;;;;4.35;2.50;;;22.70;59.90;;;;;;5007847;28;89953;-88
2023/10/07 03:38:43;;;;;;;3.58;2.45;;;22.60;59.90;;;;;;5022486;28;87515;-86
2023/10/07 03:41:09;;;;;;;4.72;2.25;;;22.60;60.00;;;;;;5025520;28;86908;-83
2023/10/07 03:43:35;;;;;;;3.45;2.50;;;22.70;59.90;;;;;;5007400;28;85913;-82
2023/10/07 03:46:01;;;;;;;4.05;2.42;;;22.70;60.10;;;;;;5007996;28;86003;-82
2023/10/07 03:48:33;;;;;;;5.55;2.63;;;22.60;60.00;;;;;;5025075;28;87874;-85
2023/10/07 03:51:04;;;;;;;5.15;2.60;;;22.60;59.90;;;;;;5006891;28;89685;-83
2023/10/07 03:53:44;;;;;;;4.07;2.47;;;22.60;59.90;;;;;;5007212;28;85681;-82
2023/10/07 03:56:10;;;;;;;;;;;22.60;59.90;;;;;;5006464;28;85933;-81
2023/10/07 03:58:36;;;;;;;4.80;2.78;;;22.60;59.80;;;;;;5027187;28;86688;-81
2023/10/07 04:01:16;;;;;;;4.80;2.88;;;22.60;59.80;;;;;;5040391;28;87193;-82
2023/10/07 04:03:49;;;;;;;6.97;3.45;;;22.60;59.90;;;;;;5007174;28;90561;-82
2023/10/07 04:06:30;;;;;;;5.30;3.17;;;22.60;60.10;;;;;;5015182;28;86126;-82
2023/10/07 04:09:05;;;;;;;3.25;2.42;;;22.60;59.90;;;;;;4990878;28;89237;-82
2023/10/07 04:11:33;;;;;;;4.40;2.60;;;22.60;60.00;;;;;;5009319;28;87115;-81
2023/10/07 04:14:06;;;;;;;5.45;3.13;;;22.60;59.90;;;;;;5002969;28;85727;-83
2023/10/07 04:16:33;;;;;;;4.38;2.42;;;22.60;60.00;;;;;;5002869;27;86345;-81
2023/10/07 04:21:55;;;;;;;3.28;2.22;;;22.60;60.10;;;;;;4978297;28;90560;-85
2023/10/07 04:24:26;;;;;;;4.10;2.75;;;22.60;60.10;;;;;;4962781;28;86649;-82
2023/10/07 04:26:54;;;;;;;5.05;2.72;;;22.60;60.10;;;;;;4997117;28;86535;-83
2023/10/07 04:29:21;;;;;;;4.60;2.88;;;22.60;60.20;;;;;;5025414;28;87460;-82
2023/10/07 04:31:57;;;;;;;3.45;2.47;;;22.60;60.30;;;;;;5024449;28;86953;-82
2023/10/07 04:34:24;;;;;;;5.07;2.97;;;22.60;60.10;;;;;;5007277;28;85703;-82
2023/10/07 04:42:22;;;;;;;3.33;2.28;;;22.50;60.10;;;;;;5018067;28;85658;-82
2023/10/07 04:47:34;;;;;;;4.30;2.63;;;22.60;60.00;;;;;;5024923;28;86573;-82
2023/10/07 04:52:30;;;;;;;;;;;22.50;60.20;;;;;;5025715;28;86723;-87
2023/10/07 04:54:58;;;;;;;5.32;2.70;;;22.60;60.20;;;;;;5042139;28;85491;-83
2023/10/07 05:00:32;;;;;;;4.72;2.30;;;22.60;60.30;;;;;;5004764;28;86127;-83
2023/10/07 05:02:59;;;;;;;3.83;2.30;;;22.50;60.10;;;;;;4998759;28;86158;-83
2023/10/07 05:05:35;;;;;;;4.72;2.47;;;22.50;60.00;;;;;;4985998;28;85913;-82
2023/10/07 05:10:54;;;;;;;2.60;1.90;;;22.50;60.10;;;;;;5019775;28;87676;-82
2023/10/07 05:13:24;;;;;;;3.72;2.55;;;22.50;59.90;;;;;;5004858;28;86796;-86
2023/10/07 05:15:49;;;;;;;4.32;2.78;;;22.50;60.00;;;;;;4987398;28;86131;-82
2023/10/07 05:18:45;;;;;;;4.03;2.50;;;22.50;60.10;;;;;;5020224;28;85686;-83
2023/10/07 05:21:11;;;;;;;4.25;2.60;;;22.50;60.20;;;;;;5005176;28;87758;-82
2023/10/07 05:23:41;;;;;;;3.92;2.28;;;22.50;60.10;;;;;;5039778;27;87287;-85
2023/10/07 05:26:09;;;;;;;5.50;3.13;;;22.50;59.80;;;;;;5023884;27;86173;-83
2023/10/07 05:28:43;;;;;;;3.75;2.70;;;22.50;60.30;;;;;;5004398;28;85945;-85
2023/10/07 05:31:11;;;;;;;3.08;2.00;;;22.50;59.80;;;;;;4984071;28;89788;-82
2023/10/07 05:33:43;;;;;;;4.35;2.53;;;22.50;60.20;;;;;;5004479;28;87383;-82
2023/10/07 05:36:13;;;;;;;4.38;2.35;;;22.50;60.50;;;;;;5004227;28;85799;-83
2023/10/07 05:38:44;;;;;;;4.35;2.72;;;22.50;60.50;;;;;;5005199;28;85665;-82
2023/10/07 05:41:14;;;;;;;3.75;2.90;;;22.50;60.40;;;;;;5011450;28;87748;-82
2023/10/07 05:43:44;;;;;;;2.97;2.15;;;22.50;60.50;;;;;;5023420;28;86482;-82
2023/10/07 05:46:11;;;;;;;3.72;2.47;;;22.40;60.50;;;;;;5006557;28;86879;-82
2023/10/07 05:48:39;;;;;;;3.95;2.40;;;22.40;60.50;;;;;;5023585;28;86420;-83
2023/10/07 05:51:09;;;;;;;3.45;2.22;;;22.40;60.60;;;;;;5009130;28;86829;-83
2023/10/07 05:53:39;;;;;;;2.83;1.90;;;22.50;60.60;;;;;;5003599;28;85926;-82
2023/10/07 05:56:06;;;;;;;3.58;2.42;;;22.50;60.70;;;;;;5005748;28;86168;-82
2023/10/07 05:58:36;;;;;;;3.72;2.25;;;22.40;60.50;;;;;;4985526;28;86599;-82
2023/10/07 06:01:20;;;;;;;3.17;2.00;;;22.40;60.50;;;;;;5021273;28;89708;-82
2023/10/07 06:03:48;;;;;;;2.95;2.17;;;22.50;60.60;;;;;;4991209;28;90480;-83
2023/10/07 06:06:14;;;;;;;3.10;2.10;;;22.40;60.40;;;;;;5020003;28;85662;-85
2023/10/07 06:08:40;;;;;;;4.30;2.58;;;22.40;60.40;;;;;;5005703;28;85928;-82
2023/10/07 06:11:10;;;;;;;3.30;2.20;;;22.40;60.30;;;;;;4997934;28;87699;-82
2023/10/07 06:13:40;;;;;;;3.90;2.25;;;22.40;60.40;;;;;;5005279;28;86834;-82
2023/10/07 06:16:07;;;;;;;3.78;1.98;;;22.40;60.40;;;;;;5006286;28;85784;-84
2023/10/07 06:18:39;;;;;;;5.35;2.85;;;22.40;60.50;;;;;;5022372;28;85713;-85
2023/10/07 06:21:40;;;;;;;4.55;2.17;;;22.40;60.50;;;;;;5021917;27;87731;-82
2023/10/07 06:24:07;;;;;;;5.30;2.45;;;22.40;60.50;;;;;;5036582;27;89511;-82
2023/10/07 06:26:48;;;;;;;3.42;2.28;;;22.40;60.70;;;;;;4995819;28;86139;-84
2023/10/07 06:29:19;;;;;;;3.78;2.30;;;22.40;60.70;;;;;;4987481;28;85640;-82
2023/10/07 06:31:55;;;;;;;;;;;22.40;60.50;;;;;;4986194;28;87904;-82
2023/10/07 06:34:25;;;;;;;3.60;2.20;;;22.40;60.50;;;;;;5021266;28;88344;-82
2023/10/07 06:36:54;;;;;;;4.05;2.45;;;22.40;60.60;;;;;;5005892;28;85676;-84
2023/10/07 06:39:27;;;;;;;3.75;2.10;;;22.40;60.50;;;;;;4987892;28;85689;-82
2023/10/07 06:41:55;;;;;;;2.70;2.22;;;22.40;60.50;;;;;;5008307;28;87423;-83
2023/10/07 06:44:23;;;;;;;4.40;2.67;;;22.40;60.50;;;;;;5021474;28;88011;-82
2023/10/07 06:46:55;;;;;;;2.90;1.77;;;22.40;60.50;;;;;;5021699;28;86145;-82
2023/10/07 06:49:21;;;;;;;3.13;2.05;;;22.40;60.50;;;;;;5004082;28;86300;-82
2023/10/07 06:51:56;;;;;;;3.22;2.30;;;22.40;60.40;;;;;;5005529;28;90474;-82
2023/10/07 06:54:32;;;;;;;3.83;2.05;;;22.40;60.50;;;;;;4969421;28;90021;-82
2023/10/07 06:56:58;;;;;;;3.53;2.33;;;22.40;60.50;;;;;;4995534;28;86217;-86
2023/10/07 06:59:33;;;;;;;3.47;2.50;;;22.40;60.50;;;;;;5003877;28;86158;-84
2023/10/07 07:02:06;;;;;;;4.75;2.15;;;22.40;60.70;;;;;;5005186;28;88755;-84
2023/10/07 07:04:32;;;;;;;4.55;2.38;;;22.40;60.90;;;;;;5026269;28;85932;-84
2023/10/07 07:06:58;;;;;;;3.65;2.55;;;22.40;61.20;;;;;;5008437;28;85459;-84
2023/10/07 07:12:22;;;;;;;3.63;2.30;;;22.40;61.50;;;;;;5023934;28;85995;-89
2023/10/07 07:14:59;;;;;;;3.30;2.40;;;22.40;61.70;;;;;;5003280;28;87992;-87
2023/10/07 07:22:43;;;;;;;5.00;2.30;;;22.40;62.00;;;;;;5023099;28;87737;-83
2023/10/07 07:25:19;;;;;;;10.70;3.08;;;22.40;62.00;;;;;;5003240;28;87018;-82
2023/10/07 07:27:52;;;;;;;5.80;2.35;;;22.40;61.30;;;;;;5003906;28;87647;-82
2023/10/07 07:30:35;;;;;;;7.38;3.40;;;22.40;60.50;;;;;;5022650;28;86045;-82
2023/10/07 07:33:13;;;;;;;8.35;3.03;;;22.40;60.90;;;;;;5025409;28;86031;-83
2023/10/07 07:35:40;;;;;;;7.32;3.08;;;22.40;60.80;;;;;;5007366;28;89824;-81
2023/10/07 07:41:09;;;;;;;3.70;2.45;;;22.40;61.60;;;;;;5018443;28;85881;-82
2023/10/07 07:43:39;;;;;;;4.85;2.50;;;22.40;61.80;;;;;;4986462;28;88521;-82
2023/10/07 07:46:18;;;;;;;4.47;3.05;;;22.40;61.60;;;;;;5021443;28;86386;-82
2023/10/07 07:48:45;;;;;;;3.78;2.42;;;22.40;61.60;;;;;;5003682;28;90840;-86
2023/10/07 07:51:16;;;;;;;6.18;2.67;;;22.40;61.60;;;;;;5007455;28;85991;-82
2023/10/07 07:53:41;;;;;;;4.22;2.70;;;22.40;61.70;;;;;;4996003;28;89588;-80
2023/10/07 07:56:13;;;;;;;5.35;2.78;;;22.40;61.60;;;;;;5013660;28;86450;-82
2023/10/07 07:58:48;;;;;;;4.85;2.85;;;22.40;61.70;;;;;;4987049;28;86343;-80
2023/10/07 08:01:30;;;;;;;5.63;2.58;;;22.40;62.60;;;;;;5006580;28;85628;-81
2023/10/07 08:03:59;;;;;;;5.07;2.67;;;22.40;61.80;;;;;;4988231;28;90404;-81
2023/10/07 08:06:25;;;;;;;6.13;2.50;;;22.40;61.70;;;;;;4986490;28;88270;-81
2023/10/07 08:08:54;;;;;;;8.05;2.80;;;22.40;61.60;;;;;;5003565;28;86263;-84
2023/10/07 08:11:21;;;;;;;5.20;2.60;;;22.50;61.80;;;;;;5004293;28;86427;-81
2023/10/07 08:13:57;;;;;;;3.40;2.13;;;22.40;61.80;;;;;;5001785;28;87552;-81
2023/10/07 08:16:25;;;;;;;3.42;2.00;;;22.50;61.80;;;;;;5001480;28;86941;-82
2023/10/07 08:18:59;;;;;;;5.35;2.42;;;22.50;61.80;;;;;;4988069;28;85796;-90
2023/10/07 08:21:29;;;;;;;5.20;2.72;;;22.50;61.70;;;;;;5006383;28;85865;-84
2023/10/07 08:24:01;;;;;;;6.00;2.42;;;22.50;61.70;;;;;;4989093;28;87925;-86
2023/10/07 08:26:26;;;;;;;3.88;2.42;;;22.50;61.80;;;;;;4987810;28;90011;-85
2023/10/07 08:34:47;;;;;;;11.45;3.38;;;22.60;61.60;;;;;;5007118;28;87750;-84
2023/10/07 08:37:32;;;;;;;12.85;4.35;;;22.60;61.40;;;;;;4989832;28;88035;-84
2023/10/07 08:40:13;;;;;;;14.02;4.38;;;22.60;61.70;;;;;;4989436;28;85507;-84
2023/10/07 08:42:53;;;;;;;15.85;5.05;;;22.60;61.50;;;;;;4967000;28;85929;-86
2023/10/07 08:48:59;;;;;;;22.85;7.22;;;22.60;61.60;;;;;;5024657;28;89926;-88
2023/10/07 08:51:27;;;;;;;23.67;7.10;;;22.60;61.70;;;;;;5004557;28;85695;-90
2023/10/07 08:53:57;;;;;;;24.15;6.70;;;22.60;61.50;;;;;;5005586;28;85704;-86
2023/10/07 08:56:27;;;;;;;28.63;6.97;;;22.60;61.60;;;;;;5037110;27;88503;-88
2023/10/07 08:58:54;;;;;;;26.38;7.65;;;22.60;61.60;;;;;;5018966;28;86428;-89
2023/10/07 09:01:24;;;;;;;28.23;7.43;;;22.60;61.60;;;;;;5004472;28;86835;-86
2023/10/07 09:03:52;;;;;;;26.13;7.72;;;22.60;61.50;;;;;;5006832;28;85570;-87
2023/10/07 09:06:32;;;;;;;26.63;7.70;;;22.60;61.70;;;;;;5004490;28;88752;-86
2023/10/07 09:12:36;;;;;;;25.77;7.90;;;22.60;61.40;;;;;;4948798;28;86473;-91
2023/10/07 09:18:42;;;;;;;39.10;13.45;;;22.60;61.90;;;;;;5004999;28;85909;-87
2023/10/07 09:21:22;;;;;;;64.22;15.48;;;22.60;61.70;;;;;;4989264;28;89339;-85
2023/10/07 09:24:02;;;;;;;50.35;15.63;;;22.60;61.90;;;;;;5020366;28;85902;-88
2023/10/07 09:26:34;;;;;;;42.85;11.55;;;22.70;61.80;;;;;;5003200;28;86169;-86
2023/10/07 09:29:22;;;;;;;53.47;14.13;;;22.70;61.80;;;;;;5016173;28;86441;-88
2023/10/07 09:31:56;;;;;;;55.83;12.77;;;22.70;61.90;;;;;;5019077;28;86372;-87
2023/10/07 09:34:41;;;;;;;51.55;12.95;;;22.70;62.20;;;;;;5003622;28;86461;-86
2023/10/07 09:37:17;;;;;;;48.75;11.27;;;22.70;62.30;;;;;;4995862;28;86603;-87
2023/10/07 09:39:44;;;;;;;52.40;11.18;;;22.70;62.40;;;;;;5002850;28;95257;-82
2023/10/07 09:42:26;;;;;;;35.75;10.82;;;22.70;62.50;;;;;;5021170;27;86570;-87
2023/10/07 09:45:27;;;;;;;39.08;10.82;;;22.70;62.20;;;;;;5021840;28;85929;-84
2023/10/07 09:47:54;;;;;;;37.03;8.90;;;22.70;61.80;;;;;;5000660;28;85798;-84
2023/10/07 09:52:57;;;;;;;34.72;9.45;;;22.80;62.10;;;;;;5019486;28;86475;-84
2023/10/07 09:55:23;;;;;;;30.08;9.02;;;22.80;62.50;;;;;;4993975;28;86258;-86
2023/10/07 09:58:01;;;;;;;22.42;7.30;;;22.80;62.50;;;;;;5005018;28;86220;-84
2023/10/07 10:00:45;;;;;;;32.97;9.27;;;22.80;62.40;;;;;;5020385;28;87902;-88
2023/10/07 10:03:30;;;;;;;23.75;7.45;;;22.80;63.30;;;;;;5004484;28;90087;-84
2023/10/07 10:06:17;;;;;;;20.77;6.63;;;22.80;64.10;;;;;;5009991;28;86993;-82
2023/10/07 10:09:08;;;;;;;25.13;8.63;;;22.80;63.90;;;;;;5020286;28;85959;-82
2023/10/07 10:16:45;;;;;;;21.55;7.47;;;22.90;65.40;;;;;;5017011;28;86291;-82
2023/10/07 10:19:22;;;;;;;22.65;7.80;;;22.80;65.50;;;;;;5016103;28;85979;-82
2023/10/07 10:21:48;;;;;;;21.90;8.02;;;22.90;65.50;;;;;;5013490;28;93147;-81
2023/10/07 10:24:15;;;;;;;26.35;7.88;;;22.90;66.20;;;;;;5014282;28;86856;-84
2023/10/07 10:26:41;;;;;;;20.05;6.68;;;22.90;66.30;;;;;;4998659;28;86072;-82
2023/10/07 10:29:17;;;;;;;28.48;8.50;;;22.90;65.20;;;;;;4998807;28;86323;-86
2023/10/07 10:31:50;;;;;;;25.92;7.60;;;22.90;66.10;;;;;;5033442;27;86556;-84
2023/10/07 10:34:16;;;;;;;24.80;7.95;;;22.90;66.90;;;;;;5000697;28;90057;-86
2023/10/07 10:36:49;;;;;;;28.73;7.88;;;23.00;66.30;;;;;;5020114;28;86417;-84
2023/10/07 10:39:25;;;;;;;19.10;7.63;;;23.00;67.10;;;;;;4999373;28;86320;-82
2023/10/07 10:41:54;;;;;;;21.88;7.15;;;23.00;67.20;;;;;;5016409;28;88993;-85
2023/10/07 10:44:21;;;;;;;25.92;7.65;;;23.00;66.90;;;;;;5016527;28;86976;-84
2023/10/07 10:46:51;;;;;;;21.15;7.47;;;23.00;67.00;;;;;;4994002;28;86348;-82
2023/10/07 10:49:21;;;;;;;18.08;7.40;;;23.00;67.10;;;;;;5013388;28;86574;-85
2023/10/07 10:51:54;;;;;;;17.95;6.22;;;23.00;66.40;;;;;;5013580;28;87377;-79
2023/10/07 10:54:22;;;;;;;18.10;7.80;;;23.00;66.50;;;;;;5027839;27;87349;-83
2023/10/07 10:56:58;;;;;;;22.50;7.50;;;23.00;66.90;;;;;;5011288;28;85961;-84
2023/10/07 10:59:44;;;;;;;24.92;7.35;;;23.00;66.50;;;;;;5013912;28;86531;-84
2023/10/07 11:02:17;;;;;;;24.05;7.25;;;23.00;66.60;;;;;;4996971;28;87994;-84
2023/10/07 11:05:02;;;;;;;17.48;7.03;;;23.00;66.10;;;;;;5020643;28;85806;-82
2023/10/07 11:07:30;;;;;;;18.05;6.20;;;23.00;65.60;;;;;;5018507;28;85997;-82
2023/10/07 11:09:57;;;;;;;14.95;5.68;;;23.00;65.80;;;;;;5003628;28;86321;-86
2023/10/07 11:12:32;;;;;;;25.85;7.00;;;23.00;65.90;;;;;;4993259;28;89683;-83
2023/10/07 11:15:15;;;;;;;20.98;6.85;;;23.00;65.80;;;;;;5021147;28;86342;-83
2023/10/07 11:17:51;;;;;;;15.18;6.72;;;23.10;65.90;;;;;;4994205;27;86210;-83
2023/10/07 11:20:19;;;;;;;15.10;5.78;;;23.10;65.80;;;;;;5023269;28;86343;-86
2023/10/07 11:22:48;;;;;;;11.53;5.77;;;23.10;65.70;;;;;;5004569;28;88070;-84
2023/10/07 11:25:18;;;;;;;15.40;6.60;;;23.10;65.40;;;;;;5022779;28;87338;-85
2023/10/07 11:27:44;;;;;;;20.13;5.95;;;23.10;65.40;;;;;;5019588;28;87724;-86
2023/10/07 11:30:11;;;;;;;24.27;6.60;;;23.10;64.70;;;;;;5000977;28;86165;-81
2023/10/07 11:32:43;;;;;;;13.15;5.32;;;23.10;65.60;;;;;;5018443;28;86680;-82
2023/10/07 11:35:30;;;;;;;16.60;4.75;;;23.00;63.30;;;;;;5017361;28;87715;-80
2023/10/07 11:38:02;;;;;;;14.55;4.93;;;23.10;62.70;;;;;;5032766;27;87188;-82
2023/10/07 11:40:29;;;;;;;19.42;5.90;;;23.10;62.70;;;;;;5019424;28;86021;-83
2023/10/07 11:42:58;;;;;;;10.88;4.72;;;23.10;64.50;;;;;;5018179;28;86613;-86
2023/10/07 11:45:26;;;;;;;16.70;4.85;;;23.10;64.40;;;;;;5018831;28;87458;-84
2023/10/07 11:47:56;;;;;;;13.57;4.55;;;23.10;64.30;;;;;;5016705;28;85911;-85
2023/10/07 11:50:23;;;;;;;12.80;4.82;;;23.10;64.00;;;;;;5000947;28;86224;-85
2023/10/07 11:52:49;;;;;;;14.55;5.90;;;23.10;64.20;;;;;;5018811;28;87613;-84
2023/10/07 11:55:17;;;;;;;9.02;4.70;;;23.10;64.30;;;;;;5017720;28;86624;-81
2023/10/07 11:57:43;;;;;;;11.98;4.53;;;23.10;64.30;;;;;;5000635;28;85960;-83
2023/10/07 12:00:23;;;;;;;14.32;5.65;;;23.10;62.30;;;;;;5013969;28;86492;-83
2023/10/07 12:02:50;;;;;;;14.40;5.38;;;23.10;63.80;;;;;;5015948;28;86826;-82
2023/10/07 12:05:16;;;;;;;14.82;5.45;;;23.10;64.20;;;;;;5015375;28;86673;-83
2023/10/07 12:07:42;;;;;;;12.65;5.30;;;23.10;64.10;;;;;;4997870;28;86119;-82
2023/10/07 12:10:15;;;;;;;12.50;4.53;;;23.20;64.30;;;;;;5015587;28;86356;-85
2023/10/07 12:12:42;;;;;;;14.10;4.80;;;23.10;64.20;;;;;;5014709;28;91187;-85
2023/10/07 12:15:17;;;;;;;14.27;4.78;;;23.10;62.80;;;;;;5029201;27;89057;-83
2023/10/07 12:17:44;;;;;;;14.60;4.30;;;23.20;63.00;;;;;;4992258;28;86554;-84
2023/10/07 12:20:13;;;;;;;11.93;5.57;;;23.10;62.60;;;;;;4987168;28;86338;-82
2023/10/07 12:22:42;;;;;;;16.75;5.35;;;23.20;62.70;;;;;;5015510;28;87426;-87
2023/10/07 12:25:18;;;;;;;12.15;4.78;;;23.10;62.80;;;;;;4993130;28;88385;-85
2023/10/07 12:27:48;;;;;;;9.43;4.70;;;23.10;62.90;;;;;;4997439;28;86778;-84
2023/10/07 12:30:21;;;;;;;13.90;4.55;;;23.20;63.50;;;;;;4992890;28;87615;-89
2023/10/07 12:32:48;;;;;;;12.60;4.03;;;23.10;63.20;;;;;;5010164;28;91970;-84
2023/10/07 12:35:15;;;;;;;13.90;4.35;;;23.10;62.10;;;;;;5031578;27;89084;-86
2023/10/07 12:37:46;;;;;;;11.50;5.00;;;23.20;62.20;;;;;;5002744;28;86681;-86
2023/10/07 12:40:13;;;;;;;13.32;5.25;;;23.20;62.30;;;;;;5001356;28;86395;-83
2023/10/07 12:42:40;;;;;;;10.38;3.72;;;23.20;62.50;;;;;;5033668;28;89510;-83
2023/10/07 12:45:08;;;;;;;13.90;5.45;;;23.20;62.60;;;;;;4993525;28;88429;-85
2023/10/07 12:47:34;;;;;;;12.13;4.70;;;23.20;63.10;;;;;;5020302;28;85697;-85
2023/10/07 12:50:20;;;;;;;11.93;4.30;;;23.20;63.00;;;;;;5036848;28;86184;-88
2023/10/07 12:52:54;;;;;;;11.40;4.97;;;23.10;63.30;;;;;;5018895;28;88397;-92
2023/10/07 12:55:21;;;;;;;19.75;5.35;;;23.20;63.40;;;;;;5021730;28;85766;-84
2023/10/07 12:57:49;;;;;;;15.95;5.00;;;23.10;63.60;;;;;;5019189;28;86109;-83
2023/10/07 13:00:20;;;;;;;13.55;4.70;;;23.10;63.60;;;;;;4993429;28;86191;-86
2023/10/07 13:02:49;;;;;;;22.65;4.88;;;23.10;63.50;;;;;;5001887;28;92103;-85
2023/10/07 13:05:19;;;;;;;13.98;5.05;;;23.20;63.80;;;;;;5003351;28;86937;-88
2023/10/07 13:07:54;;;;;;;10.57;4.10;;;23.10;63.70;;;;;;5020029;28;86421;-90
2023/10/07 13:10:20;;;;;;;17.70;4.82;;;23.10;63.40;;;;;;5035305;27;86065;-84
2023/10/07 13:12:57;;;;;;;10.90;4.00;;;23.10;62.90;;;;;;5034774;27;88966;-86
2023/10/07 13:15:37;;;;;;;11.63;4.07;;;23.20;63.40;;;;;;5000869;28;89080;-87
2023/10/07 13:18:03;;;;;;;17.25;4.63;;;23.20;63.10;;;;;;5000870;28;87618;-84
2023/10/07 13:20:30;;;;;;;9.02;3.90;;;23.20;63.10;;;;;;5018548;28;86289;-84
2023/10/07 13:23:00;;;;;;;11.48;4.20;;;23.20;63.70;;;;;;5018272;28;87848;-84
2023/10/07 13:25:26;;;;;;;11.75;4.63;;;23.20;63.70;;;;;;5000680;28;87477;-84
2023/10/07 13:27:56;;;;;;;11.27;4.55;;;23.30;64.50;;;;;;5017564;28;87121;-88
2023/10/07 13:30:25;;;;;;;9.25;4.45;;;23.30;64.60;;;;;;5001249;28;86410;-86
2023/10/07 13:32:52;;;;;;;11.73;4.40;;;23.30;64.80;;;;;;5019516;28;86551;-85
2023/10/07 13:35:20;;;;;;;14.25;4.82;;;23.30;65.20;;;;;;5000721;28;87872;-84
2023/10/07 13:37:49;;;;;;;13.13;3.95;;;23.30;64.90;;;;;;5013499;27;85825;-88
2023/10/07 13:40:15;;;;;;;;;;;23.30;64.70;;;;;;5014537;27;86470;-85
2023/10/07 13:42:47;;;;;;;11.63;4.57;;;23.30;65.10;;;;;;5015797;28;87261;-88
2023/10/07 13:45:33;;;;;;;16.30;5.05;;;23.40;64.90;;;;;;5006088;28;90081;-88
2023/10/07 13:47:58;;;;;;;15.93;4.45;;;23.40;65.60;;;;;;5017005;28;87062;-84
2023/10/07 13:50:27;;;;;;;11.40;3.88;;;23.40;65.50;;;;;;5013019;27;86313;-82
2023/10/07 13:56:12;;;;;;;12.60;4.45;;;23.40;64.60;;;;;;5012963;28;86085;-85
2023/10/07 13:58:17;;;;;;;12.88;5.00;;;23.50;65.10;;;;;;5010835;28;86501;-82
2023/10/07 14:00:47;;;;;;;9.10;4.05;;;23.50;65.90;;;;;;5030484;27;86028;-85
2023/10/07 14:03:19;;;;;;;8.02;4.22;;;23.50;66.00;;;;;;4995932;28;90045;-87
2023/10/07 14:06:09;;;;;;;11.25;4.20;;;23.50;64.90;;;;;;5005246;28;93085;-91
2023/10/07 14:08:42;;;;;;;12.52;3.80;;;23.50;65.10;;;;;;4976716;28;86856;-89
2023/10/07 14:11:09;;;;;;;7.65;3.90;;;23.50;65.00;;;;;;5005349;28;86466;-91
2023/10/07 14:13:36;;;;;;;10.90;4.38;;;23.50;65.20;;;;;;5001740;28;86591;-91
2023/10/07 14:16:09;;;;;;;10.43;4.45;;;23.50;65.20;;;;;;5001317;27;87415;-92
2023/10/07 14:18:38;;;;;;;15.80;3.90;;;23.50;65.50;;;;;;5017955;28;86386;-92
2023/10/07 14:21:08;;;;;;;10.60;4.00;;;23.50;64.80;;;;;;5011042;28;86312;-92
2023/10/07 14:23:38;;;;;;;11.77;4.32;;;23.50;65.30;;;;;;5001201;28;87398;-91
2023/10/07 14:26:14;;;;;;;16.05;5.00;;;23.50;64.60;;;;;;5003864;28;87810;-94
2023/10/07 14:28:49;;;;;;;9.35;3.80;;;23.60;65.10;;;;;;4992125;28;86081;-91
2023/10/07 14:31:43;;;;;;;12.50;4.50;;;23.60;64.60;;;;;;5004241;28;86053;-89
2023/10/07 14:34:12;;;;;;;7.75;3.90;;;23.60;64.80;;;;;;5029977;27;87144;-90
2023/10/07 14:36:42;;;;;;;12.07;4.73;;;23.70;64.80;;;;;;4993772;28;86575;-90
2023/10/07 14:39:22;;;;;;;14.45;3.95;;;23.60;64.40;;;;;;5010035;28;85669;-93